createdAt,value
2018-09-17T00:01:12.956Z,99.90
2018-09-17T00:03:41.017Z,99.90
2018-09-17T00:06:09.959Z,99.90
2018-09-17T00:08:38.008Z,99.90
2018-09-17T00:11:06.082Z,99.90
2018-09-17T00:13:34.119Z,99.90
2018-09-17T00:16:02.188Z,99.90
2018-09-17T00:18:30.245Z,99.90
2018-09-17T00:20:58.308Z,99.90
2018-09-17T00:23:26.380Z,99.80
2018-09-17T00:25:54.444Z,99.70
2018-09-17T00:28:22.529Z,99.90
2018-09-17T00:30:50.596Z,99.90
2018-09-17T00:33:18.645Z,99.90
2018-09-17T00:35:46.694Z,99.90
2018-09-17T00:38:14.740Z,99.90
2018-09-17T00:40:42.800Z,99.90
2018-09-17T00:43:10.848Z,99.90
2018-09-17T00:45:38.909Z,99.90
2018-09-17T00:48:06.971Z,99.90
2018-09-17T00:50:35.031Z,99.90
2018-09-17T00:53:03.079Z,99.90
2018-09-17T00:55:31.137Z,99.90
2018-09-17T00:58:05.612Z,99.90
2018-09-17T01:00:33.664Z,99.90
2018-09-17T01:03:01.714Z,99.90
2018-09-17T01:05:29.772Z,99.90
2018-09-17T01:07:57.827Z,99.90
2018-09-17T01:10:25.877Z,99.90
2018-09-17T01:12:53.933Z,99.90
2018-09-17T01:15:21.992Z,99.90
2018-09-17T01:17:50.067Z,99.90
2018-09-17T01:20:18.116Z,99.90
2018-09-17T01:22:46.173Z,99.90
2018-09-17T01:25:14.245Z,99.90
2018-09-17T01:27:42.305Z,99.90
2018-09-17T01:30:10.368Z,99.90
2018-09-17T01:32:38.429Z,99.90
2018-09-17T01:35:06.564Z,99.90
2018-09-17T01:37:34.623Z,99.90
2018-09-17T01:40:02.672Z,99.90
2018-09-17T01:42:30.745Z,99.90
2018-09-17T01:44:58.797Z,99.90
2018-09-17T01:47:26.916Z,99.90
2018-09-17T01:49:54.980Z,99.90
2018-09-17T01:52:23.037Z,99.90
2018-09-17T01:54:51.093Z,99.90
2018-09-17T01:57:19.248Z,99.90
2018-09-17T01:59:47.313Z,99.90
2018-09-17T02:02:15.376Z,99.90
2018-09-17T02:04:43.434Z,99.90
2018-09-17T02:07:11.509Z,99.90
2018-09-17T02:09:40.535Z,99.90
2018-09-17T02:12:10.557Z,99.90
2018-09-17T02:14:38.844Z,99.90
2018-09-17T02:17:07.340Z,99.90
2018-09-17T02:19:35.533Z,99.90
2018-09-17T02:22:06.684Z,99.90
2018-09-17T02:24:34.733Z,99.90
2018-09-17T02:27:02.805Z,99.90
2018-09-17T02:29:30.869Z,99.90
2018-09-17T02:31:58.928Z,99.90
2018-09-17T02:34:26.973Z,99.90
2018-09-17T02:36:55.042Z,99.90
2018-09-17T02:39:23.096Z,99.90
2018-09-17T02:41:51.144Z,99.90
2018-09-17T02:44:19.207Z,99.90
2018-09-17T02:46:47.265Z,99.90
2018-09-17T02:49:15.324Z,99.90
2018-09-17T02:51:43.398Z,99.90
2018-09-17T02:54:12.180Z,99.90
2018-09-17T02:56:40.225Z,99.90
2018-09-17T02:59:08.281Z,99.90
2018-09-17T03:01:36.333Z,99.90
2018-09-17T03:04:04.393Z,99.90
2018-09-17T03:06:32.461Z,99.90
2018-09-17T03:11:35.182Z,99.90
2018-09-17T03:14:03.260Z,99.90
2018-09-17T03:16:31.320Z,99.90
2018-09-17T03:18:59.382Z,99.90
2018-09-17T03:21:27.429Z,99.90
2018-09-17T03:23:55.489Z,99.90
2018-09-17T03:26:23.574Z,99.90
2018-09-17T03:28:51.647Z,99.90
2018-09-17T03:31:19.702Z,99.90
2018-09-17T03:33:47.780Z,99.90
2018-09-17T03:36:15.817Z,99.90
2018-09-17T03:38:45.106Z,99.90
2018-09-17T03:41:14.009Z,99.90
2018-09-17T03:43:43.335Z,99.90
2018-09-17T03:46:11.422Z,99.90
2018-09-17T03:48:40.201Z,99.90
2018-09-17T03:51:08.689Z,99.90
2018-09-17T03:53:37.088Z,99.90
2018-09-17T03:56:05.129Z,99.90
2018-09-17T03:58:33.360Z,99.90
2018-09-17T04:01:02.174Z,99.90
2018-09-17T04:03:30.228Z,99.90
2018-09-17T04:05:58.424Z,99.90
2018-09-17T04:08:26.498Z,99.90
2018-09-17T04:10:54.546Z,99.90
2018-09-17T04:13:22.616Z,99.90
2018-09-17T04:15:50.660Z,99.90
2018-09-17T04:18:18.713Z,99.90
2018-09-17T04:20:46.778Z,99.90
2018-09-17T04:23:19.071Z,99.90
2018-09-17T04:25:47.304Z,99.90
2018-09-17T04:28:15.385Z,99.90
2018-09-17T04:30:43.440Z,99.90
2018-09-17T04:33:11.561Z,99.90
2018-09-17T04:35:39.544Z,99.90
2018-09-17T04:38:07.597Z,99.90
2018-09-17T04:40:35.673Z,99.90
2018-09-17T04:43:03.733Z,99.90
2018-09-17T04:45:31.788Z,99.90
2018-09-17T04:47:59.829Z,99.90
2018-09-17T04:50:27.901Z,99.90
2018-09-17T04:52:55.941Z,99.90
2018-09-17T04:55:24.014Z,99.90
2018-09-17T04:57:52.077Z,99.90
2018-09-17T05:00:20.136Z,99.90
2018-09-17T05:02:48.186Z,99.90
2018-09-17T05:05:16.237Z,99.90
2018-09-17T05:07:44.282Z,99.90
2018-09-17T05:10:12.344Z,99.90
2018-09-17T05:12:40.421Z,99.90
2018-09-17T05:15:08.469Z,99.90
2018-09-17T05:17:36.516Z,99.90
2018-09-17T05:20:04.670Z,99.90
2018-09-17T05:22:32.717Z,99.90
2018-09-17T05:25:00.782Z,99.90
2018-09-17T05:27:28.835Z,99.90
2018-09-17T05:29:56.891Z,99.90
2018-09-17T05:32:25.018Z,99.90
2018-09-17T05:34:53.230Z,99.90
2018-09-17T05:37:21.235Z,99.90
2018-09-17T05:39:49.297Z,99.90
2018-09-17T05:42:17.437Z,99.90
2018-09-17T05:44:45.488Z,99.90
2018-09-17T05:47:13.581Z,99.90
2018-09-17T05:49:41.637Z,99.90
2018-09-17T05:52:09.708Z,99.90
2018-09-17T05:54:37.752Z,99.90
2018-09-17T05:57:05.812Z,99.90
2018-09-17T05:59:33.879Z,99.90
2018-09-17T06:02:01.945Z,99.90
2018-09-17T06:04:29.988Z,99.90
2018-09-17T06:06:58.132Z,99.90
2018-09-17T06:09:26.093Z,99.90
2018-09-17T06:11:54.171Z,99.90
2018-09-17T06:14:22.257Z,99.90
2018-09-17T06:16:50.251Z,99.90
2018-09-17T06:19:18.314Z,99.90
2018-09-17T06:21:46.372Z,99.90
2018-09-17T06:24:14.425Z,99.90
2018-09-17T06:26:42.554Z,99.90
2018-09-17T06:29:10.550Z,99.90
2018-09-17T06:31:38.613Z,99.70
2018-09-17T06:34:07.143Z,97.70
2018-09-17T06:36:35.201Z,96.10
2018-09-17T06:39:04.804Z,94.30
2018-09-17T06:41:32.913Z,93.70
2018-09-17T06:44:00.916Z,93.50
2018-09-17T06:46:28.982Z,93.40
2018-09-17T06:48:57.078Z,94.00
2018-09-17T06:51:25.436Z,94.20
2018-09-17T06:53:53.449Z,94.60
2018-09-17T06:56:21.513Z,94.40
2018-09-17T06:58:49.555Z,94.20
2018-09-17T07:01:17.604Z,92.60
2018-09-17T07:03:45.661Z,91.40
2018-09-17T07:06:13.753Z,88.50
2018-09-17T07:08:41.780Z,82.90
2018-09-17T07:11:10.421Z,76.50
2018-09-17T07:13:38.489Z,70.70
2018-09-17T07:16:06.590Z,66.80
2018-09-17T07:18:35.089Z,63.20
2018-09-17T07:21:03.161Z,59.30
2018-09-17T07:23:31.217Z,55.30
2018-09-17T07:25:59.306Z,53.00
2018-09-17T07:28:27.375Z,51.00
2018-09-17T07:30:55.432Z,49.70
2018-09-17T07:33:23.504Z,48.00
2018-09-17T07:35:51.567Z,46.00
2018-09-17T07:38:19.619Z,46.00
2018-09-17T07:40:47.668Z,44.30
2018-09-17T07:43:15.737Z,43.50
2018-09-17T07:45:43.808Z,42.70
2018-09-17T07:48:11.868Z,42.60
2018-09-17T07:50:39.924Z,42.40
2018-09-17T07:53:08.022Z,41.90
2018-09-17T07:55:36.047Z,41.40
2018-09-17T07:58:04.103Z,39.90
2018-09-17T08:00:32.161Z,37.40
2018-09-17T08:03:00.219Z,38.50
2018-09-17T08:05:28.314Z,36.90
2018-09-17T08:07:56.343Z,35.40
2018-09-17T08:10:25.481Z,35.30
2018-09-17T08:12:53.545Z,34.20
2018-09-17T08:15:22.377Z,35.10
2018-09-17T08:17:51.572Z,34.00
2018-09-17T08:20:19.667Z,33.90
2018-09-17T08:22:47.853Z,34.30
2018-09-17T08:25:15.912Z,34.10
2018-09-17T08:27:43.968Z,33.80
2018-09-17T08:30:12.032Z,33.10
2018-09-17T08:32:40.080Z,33.20
2018-09-17T08:35:09.096Z,33.00
2018-09-17T08:37:37.272Z,32.40
2018-09-17T08:40:05.781Z,31.50
2018-09-17T08:42:33.832Z,31.70
2018-09-17T08:45:01.894Z,31.90
2018-09-17T08:47:29.970Z,31.90
2018-09-17T08:49:58.020Z,31.90
2018-09-17T08:52:26.064Z,31.20
2018-09-17T08:54:59.516Z,30.70
2018-09-17T08:57:35.761Z,31.10
2018-09-17T09:00:11.120Z,31.00
2018-09-17T09:02:49.574Z,30.50
2018-09-17T09:05:23.438Z,31.50
2018-09-17T09:07:52.707Z,31.10
2018-09-17T09:10:26.535Z,31.30
2018-09-17T09:12:56.260Z,31.10
2018-09-17T09:15:29.955Z,30.50
2018-09-17T09:17:58.016Z,31.70
2018-09-17T09:20:26.348Z,31.30
2018-09-17T09:22:54.405Z,30.50
2018-09-17T09:25:22.448Z,29.90
2018-09-17T09:27:50.508Z,29.00
2018-09-17T09:30:18.577Z,28.30
2018-09-17T09:32:46.650Z,28.20
2018-09-17T09:35:14.688Z,28.80
2018-09-17T09:37:42.736Z,28.70
2018-09-17T09:40:10.800Z,28.50
2018-09-17T09:42:38.865Z,28.80
2018-09-17T09:45:06.946Z,29.40
2018-09-17T09:47:35.009Z,30.80
2018-09-17T09:50:03.082Z,30.70
2018-09-17T09:52:31.136Z,30.00
2018-09-17T09:54:59.220Z,29.80
2018-09-17T09:57:27.282Z,29.20
2018-09-17T09:59:55.346Z,29.70
2018-09-17T10:03:28.765Z,29.90
2018-09-17T10:05:57.052Z,29.20
2018-09-17T10:08:25.100Z,28.70
2018-09-17T10:10:58.401Z,29.30
2018-09-17T10:13:31.788Z,29.00
2018-09-17T10:16:04.105Z,29.20
2018-09-17T10:18:37.781Z,29.30
2018-09-17T10:21:05.837Z,30.50
2018-09-17T10:23:33.893Z,29.60
2018-09-17T10:26:01.940Z,29.70
2018-09-17T10:28:29.992Z,29.30
2018-09-17T10:30:58.037Z,29.50
2018-09-17T10:33:26.108Z,29.20
2018-09-17T10:35:54.160Z,29.80
2018-09-17T10:38:22.221Z,30.70
2018-09-17T10:40:50.259Z,29.50
2018-09-17T10:43:18.393Z,29.40
2018-09-17T10:45:46.440Z,28.90
2018-09-17T10:48:14.497Z,29.50
2018-09-17T10:50:42.548Z,28.60
2018-09-17T10:53:10.606Z,29.20
2018-09-17T10:55:38.673Z,30.00
2018-09-17T10:58:06.764Z,28.50
2018-09-17T11:00:34.807Z,28.90
2018-09-17T11:03:02.860Z,27.90
2018-09-17T11:05:30.917Z,27.90
2018-09-17T11:07:58.964Z,28.30
2018-09-17T11:10:27.004Z,28.50
2018-09-17T11:12:55.062Z,29.10
2018-09-17T11:15:27.508Z,27.90
2018-09-17T11:17:55.592Z,27.90
2018-09-17T11:20:23.673Z,27.80
2018-09-17T11:22:51.724Z,28.20
2018-09-17T11:25:19.776Z,28.30
2018-09-17T11:27:47.921Z,28.70
2018-09-17T11:30:15.986Z,28.40
2018-09-17T11:32:44.040Z,29.60
2018-09-17T11:35:12.089Z,29.30
2018-09-17T11:37:40.132Z,29.80
2018-09-17T11:40:08.188Z,28.30
2018-09-17T11:42:36.233Z,28.80
2018-09-17T11:45:04.292Z,27.50
2018-09-17T11:47:32.347Z,28.50
2018-09-17T11:50:00.405Z,27.90
2018-09-17T11:52:28.484Z,29.10
2018-09-17T11:54:56.554Z,28.80
2018-09-17T11:57:24.608Z,28.90
2018-09-17T11:59:52.717Z,28.80
2018-09-17T12:02:43.252Z,28.30
2018-09-17T12:05:15.564Z,29.40
2018-09-17T12:07:43.611Z,28.90
2018-09-17T12:10:12.236Z,28.30
2018-09-17T12:12:40.421Z,28.00
2018-09-17T12:15:09.120Z,27.40
2018-09-17T12:17:37.302Z,28.70
2018-09-17T12:20:05.365Z,28.80
2018-09-17T12:22:33.408Z,28.80
2018-09-17T12:25:01.477Z,28.90
2018-09-17T12:27:29.534Z,28.40
2018-09-17T12:29:57.612Z,28.90
2018-09-17T12:32:25.656Z,28.40
2018-09-17T12:34:53.721Z,28.70
2018-09-17T12:37:21.784Z,28.10
2018-09-17T12:39:49.830Z,27.80
2018-09-17T12:42:17.876Z,27.80
2018-09-17T12:44:45.940Z,28.10
2018-09-17T12:47:14.005Z,28.80
2018-09-17T12:49:42.061Z,27.60
2018-09-17T12:52:10.109Z,27.30
2018-09-17T12:54:38.181Z,27.90
2018-09-17T12:57:06.446Z,28.50
2018-09-17T12:59:34.495Z,28.90
2018-09-17T13:02:02.544Z,29.30
2018-09-17T13:04:30.592Z,31.10
2018-09-17T13:06:58.994Z,31.10
2018-09-17T13:09:27.057Z,29.50
2018-09-17T13:11:55.118Z,30.10
2018-09-17T13:14:23.165Z,32.90
2018-09-17T13:16:51.222Z,32.90
2018-09-17T13:19:19.264Z,31.60
2018-09-17T13:21:47.320Z,32.50
2018-09-17T13:24:15.383Z,32.00
2018-09-17T13:26:43.437Z,32.50
2018-09-17T13:29:11.496Z,35.00
2018-09-17T13:31:39.570Z,35.30
2018-09-17T13:34:07.617Z,32.90
2018-09-17T13:36:35.669Z,35.10
2018-09-17T13:39:03.760Z,34.80
2018-09-17T13:41:31.825Z,34.80
2018-09-17T13:43:59.888Z,35.50
2018-09-17T13:46:27.919Z,33.80
2018-09-17T13:48:55.972Z,34.80
2018-09-17T13:51:24.027Z,35.30
2018-09-17T13:53:52.174Z,36.90
2018-09-17T13:56:26.929Z,36.80
2018-09-17T13:58:54.998Z,36.10
2018-09-17T14:01:23.045Z,36.10
2018-09-17T14:03:51.113Z,36.30
2018-09-17T14:06:19.176Z,34.60
2018-09-17T14:08:47.229Z,34.80
2018-09-17T14:11:15.306Z,34.80
2018-09-17T14:13:43.357Z,35.60
2018-09-17T14:16:11.412Z,36.00
2018-09-17T14:18:39.803Z,35.40
2018-09-17T14:21:08.310Z,34.30
2018-09-17T14:23:36.372Z,35.00
2018-09-17T14:26:04.497Z,33.40
2018-09-17T14:28:32.480Z,35.10
2018-09-17T14:31:00.529Z,36.80
2018-09-17T14:33:34.150Z,36.20
2018-09-17T14:36:02.197Z,34.80
2018-09-17T14:38:30.269Z,34.90
2018-09-17T14:40:58.325Z,36.50
2018-09-17T14:43:26.440Z,33.40
2018-09-17T14:45:54.445Z,33.90
2018-09-17T14:48:22.460Z,34.90
2018-09-17T14:50:50.540Z,34.30
2018-09-17T14:53:18.620Z,36.50
2018-09-17T14:55:46.707Z,34.50
2018-09-17T14:58:15.083Z,35.10
2018-09-17T15:00:43.156Z,35.20
2018-09-17T15:03:11.398Z,35.50
2018-09-17T15:05:39.596Z,37.80
2018-09-17T15:08:08.332Z,36.50
2018-09-17T15:10:36.280Z,37.10
2018-09-17T15:13:04.307Z,36.90
2018-09-17T15:15:32.447Z,38.10
2018-09-17T15:18:00.433Z,38.80
2018-09-17T15:20:28.534Z,39.60
2018-09-17T15:22:56.568Z,37.00
2018-09-17T15:25:24.606Z,37.40
2018-09-17T15:27:52.669Z,38.40
2018-09-17T15:30:20.843Z,37.60
2018-09-17T15:32:48.901Z,40.30
2018-09-17T15:35:16.977Z,39.00
2018-09-17T15:37:45.076Z,38.30
2018-09-17T15:40:13.108Z,38.90
2018-09-17T15:42:41.173Z,37.90
2018-09-17T15:45:09.215Z,40.10
2018-09-17T15:47:37.267Z,39.40
2018-09-17T15:50:05.401Z,38.10
2018-09-17T15:52:33.435Z,38.80
2018-09-17T15:55:01.497Z,39.30
2018-09-17T15:57:29.717Z,39.50
2018-09-17T15:59:57.856Z,39.90
2018-09-17T16:02:26.012Z,39.30
2018-09-17T16:04:54.001Z,40.10
2018-09-17T16:07:22.269Z,42.30
2018-09-17T16:09:50.340Z,43.80
2018-09-17T16:12:18.393Z,45.00
2018-09-17T16:14:46.465Z,45.20
2018-09-17T16:17:14.601Z,46.10
2018-09-17T16:19:42.692Z,49.70
2018-09-17T16:22:10.748Z,51.20
2018-09-17T16:24:38.833Z,53.70
2018-09-17T16:27:07.081Z,54.90
2018-09-17T16:29:35.168Z,54.50
2018-09-17T16:32:03.241Z,53.50
2018-09-17T16:34:31.312Z,55.30
2018-09-17T16:36:59.377Z,56.20
2018-09-17T16:39:27.458Z,57.10
2018-09-17T16:41:55.528Z,58.80
2018-09-17T16:44:23.601Z,60.90
2018-09-17T16:46:51.682Z,64.60
2018-09-17T16:49:19.754Z,66.50
2018-09-17T16:51:47.818Z,66.60
2018-09-17T16:54:15.877Z,66.70
2018-09-17T16:56:43.945Z,65.50
2018-09-17T16:59:14.053Z,65.70
2018-09-17T17:01:47.220Z,67.60
2018-09-17T17:04:15.519Z,68.80
2018-09-17T17:06:43.961Z,71.30
2018-09-17T17:09:12.016Z,73.60
2018-09-17T17:11:40.128Z,73.30
2018-09-17T17:14:08.166Z,72.50
2018-09-17T17:16:36.228Z,74.30
2018-09-17T17:19:04.315Z,74.40
2018-09-17T17:21:32.357Z,74.10
2018-09-17T17:24:00.432Z,76.00
2018-09-17T17:26:29.245Z,76.20
2018-09-17T17:28:57.454Z,77.10
2018-09-17T17:31:25.536Z,74.60
2018-09-17T17:33:54.685Z,72.80
2018-09-17T17:36:22.721Z,72.30
2018-09-17T17:38:50.767Z,73.30
2018-09-17T17:41:18.837Z,77.30
2018-09-17T17:43:48.562Z,76.40
2018-09-17T17:46:16.868Z,76.90
2018-09-17T17:48:44.796Z,76.70
2018-09-17T17:51:12.858Z,76.70
2018-09-17T17:53:40.901Z,77.50
2018-09-17T17:56:08.948Z,76.70
2018-09-17T17:58:37.063Z,77.30
2018-09-17T18:01:05.251Z,77.90
2018-09-17T18:03:33.175Z,77.80
2018-09-17T18:06:01.246Z,78.10
2018-09-17T18:08:31.297Z,78.90
2018-09-17T18:10:59.358Z,80.60
2018-09-17T18:13:27.429Z,80.10
2018-09-17T18:15:55.542Z,80.00
2018-09-17T18:18:23.598Z,78.60
2018-09-17T18:20:51.754Z,80.00
2018-09-17T18:23:19.845Z,82.00
2018-09-17T18:25:48.057Z,84.00
2018-09-17T18:28:16.116Z,85.40
2018-09-17T18:30:44.189Z,87.20
2018-09-17T18:33:12.301Z,88.80
2018-09-17T18:35:40.349Z,88.50
2018-09-17T18:38:08.417Z,88.70
2018-09-17T18:40:36.667Z,88.60
2018-09-17T18:43:04.734Z,90.60
2018-09-17T18:45:32.893Z,90.60
2018-09-17T18:48:00.980Z,90.20
2018-09-17T18:50:29.041Z,90.10
2018-09-17T18:52:57.114Z,89.70
2018-09-17T18:55:25.181Z,90.50
2018-09-17T18:57:53.236Z,90.50
2018-09-17T19:00:21.299Z,91.10
2018-09-17T19:02:49.408Z,91.30
2018-09-17T19:05:17.434Z,91.60
2018-09-17T19:07:45.481Z,91.60
2018-09-17T19:10:13.533Z,91.50
2018-09-17T19:12:41.666Z,91.60
2018-09-17T19:15:15.186Z,92.20
2018-09-17T19:17:43.168Z,92.60
2018-09-17T19:20:12.166Z,92.80
2018-09-17T19:22:45.805Z,92.60
2018-09-17T19:25:14.996Z,92.80
2018-09-17T19:27:48.489Z,92.80
2018-09-17T19:30:16.803Z,93.00
2018-09-17T19:32:45.085Z,93.30
2018-09-17T19:35:13.143Z,93.30
2018-09-17T19:38:44.335Z,93.60
2018-09-17T19:41:12.389Z,93.80
2018-09-17T19:43:40.463Z,94.10
2018-09-17T19:46:13.948Z,94.40
2018-09-17T19:48:41.993Z,94.50
2018-09-17T19:51:15.508Z,94.70
2018-09-17T19:53:43.623Z,95.20
2018-09-17T19:56:11.646Z,95.10
2018-09-17T19:58:45.048Z,95.00
2018-09-17T20:01:13.105Z,95.00
2018-09-17T20:03:41.168Z,95.20
2018-09-17T20:06:14.733Z,95.40
2018-09-17T20:08:42.763Z,95.30
2018-09-17T20:11:10.821Z,95.50
2018-09-17T20:13:39.132Z,95.80
2018-09-17T20:16:07.193Z,96.30
2018-09-17T20:18:35.267Z,96.40
2018-09-17T20:21:03.324Z,96.80
2018-09-17T20:23:31.384Z,96.60
2018-09-17T20:25:59.442Z,96.50
2018-09-17T20:28:27.499Z,96.60
2018-09-17T20:30:55.928Z,97.50
2018-09-17T20:33:26.795Z,97.10
2018-09-17T20:35:54.853Z,97.00
2018-09-17T20:38:22.986Z,96.90
2018-09-17T20:40:50.968Z,97.30
2018-09-17T20:43:19.053Z,97.30
2018-09-17T20:45:47.124Z,97.20
2018-09-17T20:48:15.192Z,97.00
2018-09-17T20:50:43.254Z,97.00
2018-09-17T20:53:11.308Z,97.40
2018-09-17T20:55:39.366Z,97.40
2018-09-17T20:58:07.409Z,97.40
2018-09-17T21:00:35.469Z,97.30
2018-09-17T21:03:03.508Z,97.50
2018-09-17T21:05:31.569Z,97.70
2018-09-17T21:07:59.774Z,97.90
2018-09-17T21:10:27.848Z,98.80
2018-09-17T21:12:55.922Z,99.30
2018-09-17T21:15:23.960Z,99.60
2018-09-17T21:17:52.010Z,99.90
2018-09-17T21:20:20.077Z,99.90
2018-09-17T21:22:48.128Z,99.90
2018-09-17T21:25:16.217Z,99.90
2018-09-17T21:27:44.236Z,99.90
2018-09-17T21:30:12.309Z,99.90
2018-09-17T21:32:40.369Z,99.90
2018-09-17T21:35:08.479Z,99.90
2018-09-17T21:37:36.472Z,99.90
2018-09-17T21:40:04.717Z,99.90
2018-09-17T21:42:32.764Z,99.90
2018-09-17T21:45:00.844Z,99.90
2018-09-17T21:47:28.892Z,99.90
2018-09-17T21:49:56.944Z,99.90
2018-09-17T21:52:25.101Z,99.90
2018-09-17T21:54:53.057Z,99.90
2018-09-17T21:57:21.104Z,99.90
2018-09-17T21:59:49.165Z,99.90
2018-09-17T22:02:17.272Z,99.90
2018-09-17T22:04:45.302Z,99.90
2018-09-17T22:07:13.349Z,99.90
2018-09-17T22:09:41.404Z,99.90
2018-09-17T22:12:09.448Z,99.90
2018-09-17T22:14:37.504Z,99.90
2018-09-17T22:17:05.573Z,99.90
2018-09-17T22:19:33.628Z,99.90
2018-09-17T22:22:01.680Z,99.90
2018-09-17T22:24:29.742Z,99.90
2018-09-17T22:26:57.797Z,99.90
2018-09-17T22:29:25.853Z,99.90
2018-09-17T22:31:53.910Z,99.90
2018-09-17T22:34:21.981Z,99.90
2018-09-17T22:36:50.040Z,99.90
2018-09-17T22:39:18.109Z,99.90
2018-09-17T22:41:46.167Z,99.90
2018-09-17T22:44:14.228Z,99.90
2018-09-17T22:46:42.282Z,99.90
2018-09-17T22:49:10.326Z,99.90
2018-09-17T22:51:38.379Z,99.90
2018-09-17T22:54:06.443Z,99.90
2018-09-17T22:56:34.513Z,99.90
2018-09-17T22:59:02.657Z,99.90
2018-09-17T23:01:30.704Z,99.90
2018-09-17T23:03:58.760Z,99.90
2018-09-17T23:06:26.825Z,99.90
2018-09-17T23:08:54.899Z,99.90
2018-09-17T23:11:22.950Z,99.90
2018-09-17T23:13:50.996Z,99.90
2018-09-17T23:16:19.061Z,99.90
2018-09-17T23:18:47.120Z,99.90
2018-09-17T23:21:15.182Z,99.90
2018-09-17T23:23:43.244Z,99.90
2018-09-17T23:26:11.309Z,99.90
2018-09-17T23:28:39.356Z,99.90
2018-09-17T23:31:07.421Z,99.90
2018-09-17T23:33:35.468Z,99.90
2018-09-17T23:36:03.528Z,99.90
2018-09-17T23:38:31.593Z,99.90
2018-09-17T23:40:59.642Z,99.90
2018-09-17T23:43:27.695Z,99.90
2018-09-17T23:45:55.753Z,99.90
2018-09-17T23:48:23.815Z,99.90
2018-09-17T23:50:51.864Z,99.90
2018-09-17T23:53:19.936Z,99.90
2018-09-17T23:55:47.998Z,99.90
2018-09-17T23:58:16.048Z,99.90
